Decoded Metar for LYBE (BEOGRAD in SERBIA) (IATA:BEG) | Meteo·Mobile Aviation Weather
aviador You're here:

LYBE Decoded Metar

BEOGRAD in SERBIA
Report Time2019-03-23 08:00:00
UTC Time2019-03-23 08:15:34
Flight Rules vfr VFR
Wind300° at 08 kt
W.Decomp.*RWY 30: 8.0 kt HW 0.4 kt LCW
W.Rank300° ranks 9
Current wind is above 300° avg. (7.2)
Visibility9999 m
Phenomena:N/A
Clouds:N/A
Expected CloudBase > 3,200 ft AGL from Temp-Dew spread
CeilingNone
Temp12°C (ISA -2)
Dew Point04°C (58% RH)
AAT7.8°C
QNH1027 hPa
Density Alt-315 ft
Elevation325 ft
Report Wrong Elevation
Raw Report
LYBE 230800Z 30008KT CAVOK 12/04 Q1027 NOSIG=

Extra information for LYBE:More info

Metar Taf Metar & Taf Last 4 Metars F.Rules Stats Wind Profile Meteogram Temp Stats Airport Information Weather charts Add Link Nearby VenuesMetar ALERT Operation Metar Decoded Social comments